首页
METAR-TAF:

METAR-TAF

机场 :

卢森堡-芬德尔国际机场

卢森堡, 卢森堡

纬度: 49-37N, 经度: 006-13E, 海拔: 376米

当前天气观测

该预报发布于26分钟前的08:20 UTC
风速11节,风向西转西南
温度 16°C
湿度 88%
气压 1016 hPa
能见度10公里或以上
散云层高于800英尺
多云层高于900英尺

METAR: ELLX 140820Z 25011KT 9999 SCT008 BKN009 16/14 Q1016 NOSIG

时间: 10:46 (08:46 UTC)

预报

该预报发布于3小时和46分钟前的05:00 UTC
预报有效从14日的 06点(UTC)到 15日的 12点(UTC)
风速8节,风向西
能见度10公里或以上
1500米以下无云,无积雨云
短暂存在
从 14日的 06点(UTC)到 14日的 16点(UTC)
散云层高于3000英尺
短暂存在
从 14日的 09点(UTC)到 14日的 16点(UTC)
风速13节,风向西转西北

TAF: ELLX 140500Z 1406/1512 26008KT CAVOK TEMPO 1406/1416 SCT030 TEMPO 1409/1416 30013KT

超过4000个机场的气象观测和天气预报(METAR&TAF报告)。

可查询的气象台以黄色和红色小点在地图上表示。

将鼠标移到小点上方,可查看气象台名称。

然后点击查看天气观测和预报。

如需切换地图:点击带黑十字的绿色按钮放大地图;点击带横线的绿色按钮缩小地图;或者点击绿色箭头查看邻近地区的地图。


METAR-TAF: